Allock, Kentucky
Current Conditions -  °F | °C
As of 5:15 AM on Sunday 26 Oct 2014 (Local Time) from KI35 Reporting Station
Overcast Overcast  
Wind Chill: 48°   Ceiling: 300
Heat Index: 48°   Visibility: 0mi
Dew Point: 48°   Wind: 0mph
Humidity: 100%   Direction: NA
Pressure: 29.99"   Gusts: NA
Location:  37.1842°N, 83.1053°W
Report Text: KI35 260915Z AUTO 00000KT M1/4SM OVC003 09/09 A2999 RMK AO1
Loading
Personal Weather Stations






























Interactive Weather Map
Tropical Storm Tracking
New forecast layout! Learn more

10-Day Weather Forecast

Advertisements
Track Severe Weather on mobile